createdAt,value
2019-04-03T05:02:52.538Z,136.00
2019-04-03T05:03:34.117Z,144.00
2019-04-03T05:04:33.997Z,148.00
2019-04-03T05:05:33.983Z,140.00
2019-04-03T05:06:33.985Z,132.00
2019-04-03T05:07:33.936Z,136.00
2019-04-03T05:08:33.950Z,156.00
2019-04-03T05:09:34.891Z,180.00
2019-04-03T05:10:36.401Z,188.00
2019-04-03T05:11:33.958Z,188.00
2019-04-03T05:12:34.133Z,204.00
2019-04-03T05:13:33.850Z,240.00
2019-04-03T05:14:33.824Z,288.00
2019-04-03T05:15:34.029Z,312.00
2019-04-03T05:16:33.787Z,324.00
2019-04-03T05:17:33.768Z,356.00
2019-04-03T05:18:33.753Z,372.00
2019-04-03T05:19:33.734Z,356.00
2019-04-03T05:20:33.747Z,356.00
2019-04-03T05:21:33.706Z,392.00
2019-04-03T05:22:33.689Z,440.00
2019-04-03T05:23:33.706Z,508.00
2019-04-03T05:24:33.658Z,568.00
2019-04-03T05:25:33.637Z,604.00
2019-04-03T05:26:33.619Z,636.00
2019-04-03T05:27:34.652Z,704.00
2019-04-03T05:28:34.194Z,772.00
2019-04-03T05:29:34.846Z,812.00
2019-04-03T05:30:36.675Z,836.00
2019-04-03T05:31:33.567Z,852.00
2019-04-03T05:32:33.514Z,872.00
2019-04-03T05:33:33.496Z,892.00
2019-04-03T05:34:33.603Z,900.00
2019-04-03T05:35:33.460Z,876.00
2019-04-03T05:36:33.511Z,876.00
2019-04-03T05:37:33.552Z,928.00
2019-04-03T05:38:33.410Z,896.00
2019-04-03T05:39:33.605Z,812.00
2019-04-03T05:40:33.385Z,756.00
2019-04-03T05:41:33.550Z,748.00
2019-04-03T05:42:33.378Z,768.00
2019-04-03T05:43:33.442Z,812.00
2019-04-03T05:44:33.813Z,852.00
2019-04-03T05:45:35.364Z,856.00
2019-04-03T05:46:33.315Z,848.00
2019-04-03T05:47:33.287Z,848.00
2019-04-03T05:48:33.246Z,840.00
2019-04-03T05:49:33.230Z,848.00
2019-04-03T05:50:35.775Z,848.00
2019-04-03T05:51:33.207Z,916.00
2019-04-03T05:52:35.017Z,980.00
2019-04-03T05:53:33.178Z,1016.00
2019-04-03T05:54:33.146Z,972.00
2019-04-03T05:55:33.123Z,952.00
2019-04-03T05:56:33.106Z,924.00
2019-04-03T05:57:33.149Z,924.00
2019-04-03T05:58:33.074Z,960.00
2019-04-03T05:59:33.788Z,1004.00
2019-04-03T06:00:33.047Z,1040.00
2019-04-03T06:01:33.030Z,1068.00
2019-04-03T06:02:33.007Z,1124.00
2019-04-03T06:03:42.216Z,1228.00
2019-04-03T06:04:32.975Z,1340.00
2019-04-03T06:05:32.967Z,1400.00
2019-04-03T06:06:32.953Z,1452.00
2019-04-03T06:07:33.050Z,1512.00
2019-04-03T06:08:34.808Z,1564.00
2019-04-03T06:09:33.084Z,1592.00
2019-04-03T06:10:35.248Z,1600.00
2019-04-03T06:11:32.861Z,1560.00
2019-04-03T06:12:32.841Z,1500.00
2019-04-03T06:13:32.835Z,1440.00
2019-04-03T06:14:32.809Z,1388.00
2019-04-03T06:15:32.795Z,1360.00
2019-04-03T06:16:32.778Z,1336.00
2019-04-03T06:17:32.761Z,1284.00
2019-04-03T06:18:32.779Z,1216.00
2019-04-03T06:19:35.419Z,1148.00
2019-04-03T06:20:32.866Z,1120.00
2019-04-03T06:21:32.697Z,1152.00
2019-04-03T06:22:32.676Z,1212.00
2019-04-03T06:23:32.888Z,1280.00
2019-04-03T06:24:32.642Z,1320.00
2019-04-03T06:25:33.169Z,1436.00
2019-04-03T06:26:32.874Z,1712.00
2019-04-03T06:27:32.596Z,1884.00
2019-04-03T06:28:32.579Z,1920.00
2019-04-03T06:29:32.570Z,1964.00
2019-04-03T06:30:32.778Z,1992.00
2019-04-03T06:31:32.524Z,2052.00
2019-04-03T06:32:32.523Z,2144.00
2019-04-03T06:33:34.921Z,2192.00
2019-04-03T06:34:32.573Z,2260.00
2019-04-03T06:35:34.757Z,2272.00
2019-04-03T06:36:32.480Z,2288.00
2019-04-03T06:37:32.700Z,2224.00
2019-04-03T06:38:32.416Z,2100.00
2019-04-03T06:39:32.435Z,2192.00
2019-04-03T06:40:35.164Z,2288.00
2019-04-03T06:41:32.370Z,2420.00
2019-04-03T06:42:32.347Z,2516.00
2019-04-03T06:43:32.589Z,2472.00
2019-04-03T06:44:32.579Z,2460.00
2019-04-03T06:45:32.329Z,2356.00
2019-04-03T06:46:32.314Z,2360.00
2019-04-03T06:47:32.923Z,2432.00
2019-04-03T06:48:32.253Z,2544.00
2019-04-03T06:49:32.397Z,2584.00
2019-04-03T06:50:32.254Z,2760.00
2019-04-03T06:51:32.389Z,2960.00
2019-04-03T06:52:32.190Z,3192.00
2019-04-03T06:53:32.175Z,3676.00
2019-04-03T06:54:32.398Z,3720.00
2019-04-03T06:55:33.181Z,3724.00
2019-04-03T06:56:32.186Z,3924.00
2019-04-03T06:57:32.105Z,3640.00
2019-04-03T06:58:38.172Z,3068.00
2019-04-03T06:59:32.069Z,2652.00
2019-04-03T07:00:32.055Z,2652.00
2019-04-03T07:01:32.041Z,2840.00
2019-04-03T07:02:32.453Z,2792.00
2019-04-03T07:03:32.277Z,2580.00
2019-04-03T07:04:31.988Z,2332.00
2019-04-03T07:05:31.995Z,2292.00
2019-04-03T07:06:31.987Z,2384.00
2019-04-03T07:07:34.535Z,2416.00
2019-04-03T07:08:35.635Z,2592.00
2019-04-03T07:09:35.522Z,3148.00
2019-04-03T07:10:31.900Z,3908.00
2019-04-03T07:11:31.905Z,4780.00
2019-04-03T07:12:31.925Z,5288.00
2019-04-03T07:13:31.846Z,5584.00
2019-04-03T07:14:31.836Z,5592.00
2019-04-03T07:15:31.811Z,5500.00
2019-04-03T07:16:31.795Z,5236.00
2019-04-03T07:17:32.833Z,4856.00
2019-04-03T07:18:31.768Z,4324.00
2019-04-03T07:19:31.749Z,3744.00
2019-04-03T07:20:31.833Z,3376.00
2019-04-03T07:21:31.722Z,3244.00
2019-04-03T07:22:31.841Z,3124.00
2019-04-03T07:23:31.687Z,2880.00
2019-04-03T07:24:32.441Z,3036.00
2019-04-03T07:25:33.865Z,3364.00
2019-04-03T07:26:31.823Z,3296.00
2019-04-03T07:27:31.611Z,3012.00
2019-04-03T07:28:31.629Z,2748.00
2019-04-03T07:29:31.827Z,3016.00
2019-04-03T07:30:31.566Z,3564.00
2019-04-03T07:31:31.683Z,3572.00
2019-04-03T07:32:31.535Z,2820.00
2019-04-03T07:33:31.748Z,2228.00
2019-04-03T07:34:33.360Z,1764.00
2019-04-03T07:35:31.483Z,1740.00
2019-04-03T07:36:31.466Z,2316.00
2019-04-03T07:37:31.540Z,2276.00
2019-04-03T07:38:31.437Z,1832.00
2019-04-03T07:39:31.578Z,1400.00
2019-04-03T07:40:31.397Z,1356.00
2019-04-03T07:41:31.379Z,1656.00
2019-04-03T07:42:31.375Z,2584.00
2019-04-03T07:43:31.367Z,2912.00
2019-04-03T07:44:31.657Z,2708.00
2019-04-03T07:45:32.716Z,2460.00
2019-04-03T07:46:32.878Z,2364.00
2019-04-03T07:47:31.415Z,2680.00
2019-04-03T07:48:33.072Z,2988.00
2019-04-03T07:49:31.278Z,3484.00
2019-04-03T07:50:31.231Z,4388.00
2019-04-03T07:51:31.220Z,4148.00
2019-04-03T07:52:31.204Z,3140.00
2019-04-03T07:53:31.182Z,2240.00
2019-04-03T07:54:31.208Z,1732.00
2019-04-03T07:55:31.262Z,1508.00
2019-04-03T07:58:03.936Z,1724.00
2019-04-03T07:59:04.188Z,1732.00
2019-04-03T08:00:06.094Z,1796.00
2019-04-03T08:01:03.730Z,1988.00
2019-04-03T08:02:03.709Z,2216.00
2019-04-03T08:03:03.698Z,2368.00
2019-04-03T08:04:03.699Z,2500.00
2019-04-03T08:05:03.655Z,3076.00
2019-04-03T08:06:04.465Z,3660.00
2019-04-03T08:07:03.632Z,3864.00
2019-04-03T08:08:03.615Z,3556.00
2019-04-03T08:09:08.855Z,2840.00
2019-04-03T08:10:03.572Z,2204.00
2019-04-03T08:11:03.586Z,1724.00
2019-04-03T08:12:04.503Z,1524.00
2019-04-03T08:13:06.219Z,1612.00
2019-04-03T08:14:03.504Z,1800.00
2019-04-03T08:15:03.552Z,1952.00
2019-04-03T08:16:03.824Z,2300.00
2019-04-03T08:17:03.485Z,2216.00
2019-04-03T08:18:04.134Z,2064.00
2019-04-03T08:24:15.483Z,4108.00
2019-04-03T08:24:39.694Z,4868.00
2019-04-03T08:25:41.779Z,5152.00
2019-04-03T08:26:39.150Z,4988.00
2019-04-03T08:27:39.217Z,4356.00
2019-04-03T08:28:38.804Z,3540.00
2019-04-03T08:29:39.370Z,2924.00
2019-04-03T08:30:39.683Z,2652.00
2019-04-03T08:31:38.757Z,2816.00
2019-04-03T08:32:38.763Z,3212.00
2019-04-03T08:33:38.916Z,3920.00
2019-04-03T08:34:38.756Z,4412.00
2019-04-03T08:35:38.703Z,4848.00
2019-04-03T08:36:39.799Z,5592.00
2019-04-03T08:37:40.915Z,5832.00
2019-04-03T08:38:38.710Z,6572.00
2019-04-03T08:39:38.620Z,8000.00
2019-04-03T08:40:38.639Z,8968.00
2019-04-03T08:41:38.871Z,9148.00
2019-04-03T08:42:38.561Z,9032.00
2019-04-03T08:43:38.549Z,8672.00
2019-04-03T08:44:38.799Z,9412.00
2019-04-03T08:45:39.286Z,9428.00
2019-04-03T08:46:38.719Z,8716.00
2019-04-03T08:47:38.576Z,7944.00
2019-04-03T08:48:38.499Z,7564.00
2019-04-03T08:49:38.486Z,7468.00
2019-04-03T08:50:38.700Z,7292.00
2019-04-03T08:51:38.421Z,7460.00
2019-04-03T08:52:38.506Z,8108.00
2019-04-03T08:53:39.640Z,8664.00
2019-04-03T08:54:39.854Z,8808.00
2019-04-03T08:55:38.801Z,9232.00
2019-04-03T08:56:38.389Z,9596.00
2019-04-03T08:57:38.627Z,9836.00
2019-04-03T08:58:38.307Z,10196.00
2019-04-03T08:59:38.297Z,10084.00
2019-04-03T09:00:38.365Z,9756.00
2019-04-03T09:01:38.406Z,9888.00
2019-04-03T09:02:38.278Z,9608.00
2019-04-03T09:03:38.298Z,8944.00
2019-04-03T09:04:38.223Z,8900.00
2019-04-03T09:05:38.197Z,8920.00
2019-04-03T09:06:38.412Z,8448.00
2019-04-03T09:07:38.169Z,9008.00
2019-04-03T09:08:38.151Z,9184.00
2019-04-03T09:09:38.362Z,9608.00
2019-04-03T09:10:38.162Z,9948.00
2019-04-03T09:11:38.182Z,9980.00
2019-04-03T09:12:38.873Z,9720.00
2019-04-03T09:13:38.076Z,9096.00
2019-04-03T09:14:38.261Z,8816.00
2019-04-03T09:15:38.047Z,9216.00
2019-04-03T09:16:38.074Z,8988.00
2019-04-03T09:17:38.021Z,8572.00
2019-04-03T09:18:38.669Z,8184.00
2019-04-03T09:19:41.092Z,7712.00
2019-04-03T09:20:37.985Z,8432.00
2019-04-03T09:21:37.998Z,9144.00
2019-04-03T09:22:37.952Z,8864.00
2019-04-03T09:23:37.930Z,8516.00
2019-04-03T09:24:37.917Z,8116.00
2019-04-03T09:25:38.068Z,7432.00
2019-04-03T09:26:38.232Z,6856.00
2019-04-03T09:27:39.970Z,6160.00
2019-04-03T09:28:37.859Z,5880.00
2019-04-03T09:29:37.847Z,6344.00
2019-04-03T09:30:37.983Z,6224.00
2019-04-03T09:31:37.908Z,5720.00
2019-04-03T09:32:37.793Z,5200.00
2019-04-03T09:33:37.788Z,4992.00
2019-04-03T09:34:37.766Z,4908.00
2019-04-03T09:35:37.751Z,4968.00
2019-04-03T09:36:37.779Z,4728.00
2019-04-03T09:37:38.278Z,4740.00
2019-04-03T09:38:40.448Z,4596.00
2019-04-03T09:39:37.702Z,4448.00
2019-04-03T09:40:37.670Z,4312.00
2019-04-03T09:41:37.657Z,4012.00
2019-04-03T09:42:37.681Z,3784.00
2019-04-03T09:43:39.395Z,3968.00
2019-04-03T09:44:37.614Z,4196.00
2019-04-03T09:45:37.829Z,4368.00
2019-04-03T09:46:37.704Z,4108.00
2019-04-03T09:47:37.720Z,4112.00
2019-04-03T09:48:37.983Z,4228.00
2019-04-03T09:49:40.235Z,4488.00
2019-04-03T09:50:37.801Z,4396.00
2019-04-03T09:51:37.506Z,4240.00
2019-04-03T09:52:44.817Z,4496.00
2019-04-03T09:53:37.694Z,5104.00
2019-04-03T09:54:37.454Z,5544.00
2019-04-03T09:55:37.900Z,5800.00
2019-04-03T09:56:45.045Z,4988.00
2019-04-03T09:57:37.418Z,4396.00
2019-04-03T09:58:37.434Z,3812.00
2019-04-03T09:59:37.816Z,2876.00
2019-04-03T10:00:37.548Z,2068.00
2019-04-03T10:01:37.350Z,1716.00
2019-04-03T10:02:37.348Z,1404.00
2019-04-03T10:03:37.352Z,1332.00
2019-04-03T10:04:37.565Z,1456.00
2019-04-03T10:05:37.323Z,1660.00
2019-04-03T10:06:37.316Z,2140.00
2019-04-03T10:07:37.595Z,2688.00
2019-04-03T10:08:38.089Z,2696.00
2019-04-03T10:09:38.695Z,2460.00
2019-04-03T10:10:37.273Z,2172.00
2019-04-03T10:11:39.247Z,1728.00
2019-04-03T10:12:37.177Z,1264.00
2019-04-03T10:13:37.342Z,1052.00
2019-04-03T10:14:37.161Z,1196.00
2019-04-03T10:15:37.137Z,1656.00
2019-04-03T10:16:37.509Z,2084.00
2019-04-03T10:17:38.364Z,2620.00
2019-04-03T10:18:37.238Z,2684.00
2019-04-03T10:19:37.075Z,2628.00
2019-04-03T10:20:37.084Z,2464.00
2019-04-03T10:21:37.045Z,2328.00
2019-04-03T10:22:37.340Z,2308.00
2019-04-03T10:23:37.011Z,2340.00
2019-04-03T10:24:36.987Z,2316.00
2019-04-03T10:25:37.891Z,2080.00
2019-04-03T10:26:39.452Z,1816.00
2019-04-03T10:27:37.014Z,1716.00
2019-04-03T10:28:36.917Z,1608.00
2019-04-03T10:29:36.905Z,1504.00
2019-04-03T10:30:37.240Z,1512.00
2019-04-03T10:31:37.252Z,1620.00
2019-04-03T10:32:36.860Z,1712.00
2019-04-03T10:33:36.839Z,1796.00
2019-04-03T10:34:36.818Z,1788.00
2019-04-03T10:35:38.564Z,1784.00
2019-04-03T10:36:36.825Z,1780.00
2019-04-03T10:37:36.774Z,1840.00
2019-04-03T10:38:36.797Z,1932.00
2019-04-03T10:39:40.042Z,1952.00
2019-04-03T10:40:36.719Z,1812.00
2019-04-03T10:41:36.711Z,1516.00
2019-04-03T10:42:36.907Z,1452.00
2019-04-03T10:43:37.595Z,1672.00
2019-04-03T10:44:36.664Z,2340.00
2019-04-03T10:45:36.952Z,3572.00
2019-04-03T10:46:36.724Z,3772.00
2019-04-03T10:47:42.430Z,3444.00
2019-04-03T10:48:36.801Z,3500.00
2019-04-03T10:49:36.941Z,3420.00
2019-04-03T10:50:38.061Z,3280.00
2019-04-03T10:51:36.539Z,2780.00
2019-04-03T10:52:36.527Z,2404.00
2019-04-03T10:53:36.760Z,2176.00
2019-04-03T10:54:38.285Z,2120.00
2019-04-03T10:55:36.830Z,2268.00
2019-04-03T10:56:36.465Z,2472.00
2019-04-03T10:57:36.478Z,2600.00
2019-04-03T10:58:38.120Z,2808.00
2019-04-03T10:59:36.411Z,3336.00
2019-04-03T11:00:36.422Z,3336.00
2019-04-03T11:01:36.709Z,3196.00
2019-04-03T11:02:36.618Z,3320.00
2019-04-03T11:03:36.399Z,3324.00
2019-04-03T11:04:36.328Z,3136.00
2019-04-03T11:05:36.311Z,2688.00
2019-04-03T11:06:37.504Z,2024.00
2019-04-03T11:07:36.273Z,1528.00
2019-04-03T11:08:36.263Z,1072.00
2019-04-03T11:09:36.397Z,1024.00
2019-04-03T11:10:36.396Z,1196.00
2019-04-03T11:11:37.172Z,1600.00
2019-04-03T11:12:36.533Z,2976.00
2019-04-03T11:13:36.185Z,4440.00
2019-04-03T11:14:36.924Z,4276.00
2019-04-03T11:15:36.203Z,4188.00
2019-04-03T11:16:38.512Z,4284.00
2019-04-03T11:17:36.195Z,4464.00
2019-04-03T11:18:36.093Z,4652.00
2019-04-03T11:19:37.360Z,4876.00
2019-04-03T11:20:36.826Z,5104.00
2019-04-03T11:21:36.085Z,4364.00
2019-04-03T11:22:40.472Z,3856.00
2019-04-03T11:23:41.906Z,3184.00
2019-04-03T11:24:38.510Z,2656.00
2019-04-03T11:25:36.156Z,2508.00
2019-04-03T11:26:36.119Z,2400.00
2019-04-03T11:27:43.669Z,2080.00
2019-04-03T11:28:37.461Z,1960.00
2019-04-03T11:29:36.312Z,1896.00
2019-04-03T11:30:35.905Z,2200.00
2019-04-03T11:31:41.219Z,2620.00
2019-04-03T11:32:36.108Z,3008.00
2019-04-03T11:33:35.849Z,3228.00
2019-04-03T11:34:35.832Z,3168.00
2019-04-03T11:35:35.993Z,2880.00
2019-04-03T11:36:35.901Z,3040.00
2019-04-03T11:37:36.181Z,3204.00
2019-04-03T11:38:35.766Z,2976.00
2019-04-03T11:39:37.442Z,2528.00
2019-04-03T11:40:35.821Z,2072.00
2019-04-03T11:41:35.720Z,1744.00
2019-04-03T11:42:35.735Z,1656.00
2019-04-03T11:43:35.908Z,1700.00
2019-04-03T11:44:35.866Z,1956.00
2019-04-03T11:45:35.944Z,2164.00
2019-04-03T11:46:35.635Z,1924.00
2019-04-03T11:47:35.905Z,1520.00
2019-04-03T11:48:35.667Z,1396.00
2019-04-03T11:49:35.622Z,1524.00
2019-04-03T11:50:35.732Z,2148.00
2019-04-03T11:51:35.547Z,2720.00
2019-04-03T11:52:35.594Z,2464.00
2019-04-03T11:53:36.007Z,2080.00
2019-04-03T11:54:38.852Z,2116.00
2019-04-03T11:55:35.635Z,2552.00
2019-04-03T11:56:35.792Z,2848.00
2019-04-03T11:57:35.455Z,2960.00
2019-04-03T11:58:35.435Z,2944.00
2019-04-03T11:59:35.414Z,3152.00
2019-04-03T12:00:35.628Z,3832.00
2019-04-03T12:01:35.385Z,4152.00
2019-04-03T12:02:36.883Z,3988.00
2019-04-03T12:03:35.393Z,2940.00
2019-04-03T12:04:35.361Z,1724.00
2019-04-03T12:05:35.307Z,1564.00
2019-04-03T12:06:35.336Z,1964.00
2019-04-03T12:07:35.269Z,2352.00
2019-04-03T12:08:35.289Z,3596.00
2019-04-03T12:09:35.239Z,5256.00
2019-04-03T12:10:35.643Z,5448.00
2019-04-03T12:11:37.639Z,5656.00
2019-04-03T12:12:35.189Z,5940.00
2019-04-03T12:13:35.197Z,5412.00
2019-04-03T12:14:35.150Z,4204.00
2019-04-03T12:15:35.130Z,3716.00
2019-04-03T12:16:35.123Z,4392.00
2019-04-03T12:17:35.380Z,5156.00
2019-04-03T12:18:35.134Z,5380.00
2019-04-03T12:19:37.139Z,5564.00
2019-04-03T12:20:35.049Z,5780.00
2019-04-03T12:21:35.030Z,6216.00
2019-04-03T12:22:35.238Z,6416.00
2019-04-03T12:23:34.989Z,6548.00
2019-04-03T12:24:35.073Z,6484.00
2019-04-03T12:25:36.562Z,6308.00
2019-04-03T12:26:34.930Z,6132.00
2019-04-03T12:27:36.067Z,5912.00
2019-04-03T12:28:35.257Z,5468.00
2019-04-03T12:29:35.330Z,5020.00
2019-04-03T12:30:34.875Z,4936.00
2019-04-03T12:31:34.857Z,4880.00
2019-04-03T12:32:39.638Z,4916.00
2019-04-03T12:33:34.809Z,5124.00
2019-04-03T12:34:36.651Z,4992.00
2019-04-03T12:35:35.247Z,4592.00
2019-04-03T12:36:34.758Z,4268.00
2019-04-03T12:37:34.836Z,4148.00
2019-04-03T12:38:34.728Z,4248.00
2019-04-03T12:39:34.707Z,4432.00
2019-04-03T12:40:34.722Z,4696.00
2019-04-03T12:41:36.418Z,5076.00
2019-04-03T12:42:34.657Z,5324.00
2019-04-03T12:43:34.940Z,5296.00
2019-04-03T12:44:34.619Z,5320.00
2019-04-03T12:45:34.695Z,5320.00
2019-04-03T12:46:34.861Z,5436.00
2019-04-03T12:47:34.754Z,5564.00
2019-04-03T12:48:34.545Z,5416.00
2019-04-03T12:49:34.703Z,5360.00
2019-04-03T12:50:34.629Z,5424.00
2019-04-03T12:51:34.789Z,5576.00
2019-04-03T12:52:34.483Z,5696.00
2019-04-03T12:53:34.625Z,5484.00
2019-04-03T12:54:34.459Z,5096.00
2019-04-03T12:55:34.566Z,4556.00
2019-04-03T12:56:34.409Z,4008.00
2019-04-03T12:57:34.485Z,3328.00
2019-04-03T12:58:36.400Z,2672.00
2019-04-03T12:59:34.360Z,2480.00
2019-04-03T13:00:34.426Z,2436.00
2019-04-03T13:01:34.453Z,2332.00
2019-04-03T13:02:34.715Z,2428.00
2019-04-03T13:03:36.398Z,2564.00
2019-04-03T13:04:34.674Z,2792.00
2019-04-03T13:05:36.245Z,3020.00
2019-04-03T13:06:34.620Z,3096.00
2019-04-03T13:07:35.950Z,3200.00
2019-04-03T13:08:34.297Z,3484.00
2019-04-03T13:09:37.073Z,3664.00
2019-04-03T13:10:41.476Z,3844.00
2019-04-03T13:11:34.139Z,3992.00
2019-04-03T13:12:34.132Z,3964.00
2019-04-03T13:13:34.111Z,3860.00
2019-04-03T13:14:34.100Z,3492.00
2019-04-03T13:15:36.246Z,2956.00
2019-04-03T13:16:34.053Z,2560.00
2019-04-03T13:17:34.042Z,2372.00
2019-04-03T13:18:34.017Z,2168.00
2019-04-03T13:19:34.031Z,2028.00
2019-04-03T13:20:36.051Z,2100.00
2019-04-03T13:21:33.972Z,2272.00
2019-04-03T13:22:34.338Z,2408.00
2019-04-03T13:23:33.929Z,2428.00
2019-04-03T13:24:33.915Z,2504.00
2019-04-03T13:25:33.899Z,2676.00
2019-04-03T13:26:33.877Z,3032.00
2019-04-03T13:27:34.023Z,3640.00
2019-04-03T13:28:35.960Z,3880.00
2019-04-03T13:29:33.881Z,3760.00
2019-04-03T13:30:33.808Z,3684.00
2019-04-03T13:31:34.193Z,3456.00
2019-04-03T13:32:33.804Z,3340.00
2019-04-03T13:33:33.760Z,3236.00
2019-04-03T13:34:34.064Z,3204.00
2019-04-03T13:35:34.033Z,3268.00
2019-04-03T13:36:33.707Z,3168.00
2019-04-03T13:37:33.970Z,3148.00
2019-04-03T13:38:33.710Z,3376.00
2019-04-03T13:39:34.269Z,3600.00
2019-04-03T13:40:34.949Z,3568.00
2019-04-03T13:41:34.825Z,3432.00
2019-04-03T13:42:33.607Z,3244.00
2019-04-03T13:43:33.579Z,3188.00
2019-04-03T13:44:33.955Z,3212.00
2019-04-03T13:45:33.548Z,3080.00
2019-04-03T13:46:34.462Z,3112.00
2019-04-03T13:47:33.813Z,3284.00
2019-04-03T13:48:33.500Z,3508.00
2019-04-03T13:49:33.491Z,3544.00
2019-04-03T13:50:33.709Z,3336.00
2019-04-03T13:51:33.457Z,3268.00
2019-04-03T13:52:40.903Z,3392.00
2019-04-03T13:53:33.412Z,3492.00
2019-04-03T13:54:33.727Z,3584.00
2019-04-03T13:55:35.061Z,3504.00
2019-04-03T13:56:33.691Z,3352.00
2019-04-03T13:57:33.704Z,3384.00
2019-04-03T13:58:33.769Z,3736.00
2019-04-03T13:59:33.778Z,4108.00
2019-04-03T14:00:33.996Z,4740.00
2019-04-03T14:01:33.624Z,5088.00
2019-04-03T14:02:33.295Z,4624.00
2019-04-03T14:03:33.288Z,4032.00
2019-04-03T14:04:33.411Z,3576.00
2019-04-03T14:05:33.788Z,3556.00
2019-04-03T14:06:35.404Z,3748.00
2019-04-03T14:07:33.215Z,4196.00
2019-04-03T14:08:33.250Z,5388.00
2019-04-03T14:09:33.153Z,6720.00
2019-04-03T14:10:33.138Z,8236.00
2019-04-03T14:11:33.347Z,9792.00
2019-04-03T14:12:33.163Z,11684.00
2019-04-03T14:13:33.414Z,12932.00
2019-04-03T14:14:33.093Z,15168.00
2019-04-03T14:15:33.044Z,20576.00
2019-04-03T14:16:34.820Z,25632.00
2019-04-03T14:17:35.732Z,38400.00
2019-04-03T14:18:33.311Z,42112.00
2019-04-03T14:19:43.315Z,45568.00
2019-04-03T14:20:33.297Z,43808.00
2019-04-03T14:21:35.257Z,26688.00
2019-04-03T14:22:32.937Z,38624.00
2019-04-03T14:23:34.900Z,47072.00
2019-04-03T14:24:41.514Z,53632.00
2019-04-03T14:25:37.604Z,61440.00
2019-04-03T14:26:33.871Z,85056.00
2019-04-03T14:27:33.968Z,68832.00
2019-04-03T14:28:34.612Z,69728.00
2019-04-03T14:29:33.760Z,65376.00
2019-04-03T14:30:33.961Z,52384.00
2019-04-03T14:31:36.599Z,54240.00
2019-04-03T14:32:33.464Z,33088.00
2019-04-03T14:33:42.909Z,40480.00
2019-04-03T14:34:32.777Z,19808.00
2019-04-03T14:35:47.462Z,14056.00
2019-04-03T14:36:32.746Z,11672.00
2019-04-03T14:37:33.016Z,12336.00
2019-04-03T14:38:33.263Z,16672.00
2019-04-03T14:39:33.032Z,24000.00
2019-04-03T14:40:32.705Z,16448.00
2019-04-03T14:41:35.250Z,11612.00
2019-04-03T14:42:32.870Z,9512.00
2019-04-03T14:43:34.331Z,9808.00
2019-04-03T14:44:32.940Z,10964.00
2019-04-03T14:45:32.654Z,16256.00
2019-04-03T14:46:32.646Z,12168.00
2019-04-03T14:47:33.006Z,12276.00
2019-04-03T14:48:32.632Z,15296.00
2019-04-03T14:49:33.375Z,18432.00
2019-04-03T14:50:32.595Z,14880.00
2019-04-03T14:51:32.655Z,11952.00
2019-04-03T14:52:32.941Z,10824.00
2019-04-03T14:53:32.555Z,10520.00
2019-04-03T14:54:32.596Z,10416.00
2019-04-03T14:55:40.347Z,11996.00
2019-04-03T14:56:33.427Z,19136.00
2019-04-03T14:57:37.098Z,31776.00
2019-04-03T14:58:32.502Z,26848.00
2019-04-03T14:59:34.683Z,20256.00
2019-04-03T15:00:32.652Z,14784.00
2019-04-03T15:01:32.471Z,13140.00
2019-04-03T15:02:32.602Z,16384.00
2019-04-03T15:03:34.064Z,20352.00
2019-04-03T15:04:36.113Z,17472.00
2019-04-03T15:05:32.420Z,12404.00
2019-04-03T15:06:32.618Z,8136.00
2019-04-03T15:07:32.393Z,6712.00
2019-04-03T15:08:32.530Z,6120.00
2019-04-03T15:09:32.362Z,5728.00
2019-04-03T15:10:32.789Z,5260.00
2019-04-03T15:11:34.384Z,4832.00
2019-04-03T15:12:32.359Z,4488.00
2019-04-03T15:13:32.478Z,4536.00
2019-04-03T15:14:32.470Z,4756.00
2019-04-03T15:15:32.307Z,5400.00
2019-04-03T15:16:32.323Z,6416.00
2019-04-03T15:17:32.619Z,6700.00
2019-04-03T15:18:32.359Z,6264.00
2019-04-03T15:19:32.378Z,5836.00
2019-04-03T15:20:33.476Z,5540.00
2019-04-03T15:21:32.202Z,5616.00
2019-04-03T15:22:33.195Z,5616.00
2019-04-03T15:23:33.784Z,5528.00
2019-04-03T15:24:32.395Z,5212.00
2019-04-03T15:25:32.592Z,5108.00
2019-04-03T15:26:32.592Z,5004.00
2019-04-03T15:27:32.392Z,5208.00
2019-04-03T15:28:32.410Z,5764.00
2019-04-03T15:29:32.098Z,5976.00
2019-04-03T15:30:32.878Z,6248.00
2019-04-03T15:31:32.066Z,8232.00
2019-04-03T15:32:32.069Z,7384.00
2019-04-03T15:33:32.050Z,7412.00
2019-04-03T15:34:32.024Z,7964.00
2019-04-03T15:35:33.087Z,8936.00
2019-04-03T15:36:34.778Z,8540.00
2019-04-03T15:37:31.987Z,8004.00
2019-04-03T15:38:31.970Z,7224.00
2019-04-03T15:39:32.269Z,6776.00
2019-04-03T15:40:31.943Z,6176.00
2019-04-03T15:41:34.191Z,5856.00
2019-04-03T15:42:32.345Z,5736.00
2019-04-03T15:43:31.897Z,5860.00
2019-04-03T15:44:31.908Z,5892.00
2019-04-03T15:45:32.072Z,5980.00
2019-04-03T15:46:34.165Z,6320.00
2019-04-03T15:47:38.230Z,6668.00
2019-04-03T15:48:32.282Z,6804.00
2019-04-03T15:49:31.952Z,6616.00
2019-04-03T15:50:33.393Z,6572.00
2019-04-03T15:51:32.118Z,6792.00
2019-04-03T15:52:31.771Z,6708.00
2019-04-03T15:53:31.744Z,6608.00
2019-04-03T15:54:33.063Z,6140.00
2019-04-03T15:55:32.010Z,5652.00
2019-04-03T15:56:31.731Z,5368.00
2019-04-03T15:57:32.093Z,5244.00
2019-04-03T15:58:31.679Z,5032.00
2019-04-03T15:59:31.963Z,4768.00
2019-04-03T16:00:34.264Z,4500.00
2019-04-03T16:01:31.625Z,4296.00
2019-04-03T16:02:31.638Z,4192.00
2019-04-03T16:03:31.684Z,4184.00
2019-04-03T16:04:33.504Z,4252.00
2019-04-03T16:05:33.880Z,4336.00
2019-04-03T16:06:31.702Z,4344.00
2019-04-03T16:07:33.256Z,4328.00
2019-04-03T16:08:31.522Z,4332.00
2019-04-03T16:09:31.536Z,4296.00
2019-04-03T16:10:31.680Z,4244.00
2019-04-03T16:11:31.473Z,4164.00
2019-04-03T16:12:31.595Z,4100.00
2019-04-03T16:13:31.854Z,4028.00
2019-04-03T16:14:31.792Z,3932.00
2019-04-03T16:15:31.414Z,3836.00
2019-04-03T16:16:31.575Z,3652.00
2019-04-03T16:17:33.568Z,3352.00
2019-04-03T16:18:31.882Z,3076.00
2019-04-03T16:19:31.529Z,2872.00
2019-04-03T16:20:31.395Z,2752.00
2019-04-03T16:21:31.658Z,2704.00
2019-04-03T16:22:32.157Z,2660.00
2019-04-03T16:23:31.707Z,2748.00
2019-04-03T16:24:31.327Z,2808.00
2019-04-03T16:25:31.306Z,2836.00
2019-04-03T16:26:31.505Z,2756.00
2019-04-03T16:27:31.412Z,2504.00
2019-04-03T16:28:33.730Z,2136.00
2019-04-03T16:29:31.401Z,1784.00
2019-04-03T16:30:31.227Z,1516.00
2019-04-03T16:31:31.571Z,1400.00
2019-04-03T16:32:31.558Z,1388.00
2019-04-03T16:33:31.319Z,1468.00
2019-04-03T16:34:31.219Z,1472.00
2019-04-03T16:35:31.152Z,1448.00
2019-04-03T16:36:31.353Z,1484.00
2019-04-03T16:37:31.364Z,1480.00
2019-04-03T16:38:31.356Z,1420.00
2019-04-03T16:39:32.523Z,1320.00
2019-04-03T16:40:31.905Z,1240.00
2019-04-03T16:41:31.409Z,1240.00
2019-04-03T16:42:31.003Z,1312.00
2019-04-03T16:43:31.040Z,1404.00
2019-04-03T16:44:31.161Z,1432.00
2019-04-03T16:45:30.952Z,1356.00
2019-04-03T16:46:30.973Z,1276.00
2019-04-03T16:47:31.317Z,1228.00
2019-04-03T16:48:31.197Z,1248.00
2019-04-03T16:49:30.895Z,1288.00
2019-04-03T16:50:30.914Z,1360.00
2019-04-03T16:51:31.728Z,1440.00
2019-04-03T16:52:31.296Z,1460.00
2019-04-03T16:53:30.924Z,1384.00
2019-04-03T16:54:33.093Z,1264.00
2019-04-03T16:55:30.828Z,1144.00
2019-04-03T16:56:30.811Z,1004.00
2019-04-03T16:57:31.402Z,868.00
2019-04-03T16:58:30.752Z,788.00
2019-04-03T16:59:31.718Z,736.00
2019-04-03T17:00:30.723Z,692.00
2019-04-03T17:01:30.740Z,632.00
2019-04-03T17:02:30.737Z,592.00
2019-04-03T17:03:33.168Z,552.00
2019-04-03T17:04:31.071Z,512.00
2019-04-03T17:05:31.162Z,476.00
2019-04-03T17:06:30.668Z,436.00
2019-04-03T17:07:30.608Z,396.00
2019-04-03T17:08:30.646Z,360.00
2019-04-03T17:09:32.632Z,332.00
2019-04-03T17:10:30.566Z,372.00
2019-04-03T17:11:30.543Z,400.00
2019-04-03T17:12:30.554Z,396.00
2019-04-03T17:13:30.519Z,400.00
2019-04-03T17:14:30.852Z,388.00